createdAt,value
2018-06-27T15:36:08.354Z,2.10
2018-06-27T15:38:35.595Z,1.80
2018-06-27T15:41:08.980Z,1.20
2018-06-27T15:43:36.921Z,1.60
2018-06-27T15:46:06.280Z,1.77
2018-06-27T15:48:35.175Z,1.80
2018-06-27T15:51:02.786Z,1.33
2018-06-27T15:53:30.567Z,1.50
2018-06-27T15:55:58.991Z,1.43
2018-06-27T15:58:27.786Z,1.50
2018-06-27T16:53:30.189Z,2.77
2018-06-27T16:55:59.321Z,3.60
2018-06-27T16:58:26.342Z,3.93
2018-06-27T17:00:53.700Z,3.60
2018-06-27T17:03:20.891Z,4.37
2018-06-27T17:05:48.588Z,3.97
2018-06-27T17:08:16.630Z,3.40
2018-06-27T17:10:43.829Z,3.00
2018-06-27T17:15:54.962Z,2.97
2018-06-27T17:18:27.017Z,2.40
2018-06-27T17:31:57.476Z,2.37
2018-06-27T17:34:31.571Z,2.40
2018-06-27T17:37:05.554Z,2.30
2018-06-27T17:39:33.422Z,2.80
2018-06-27T17:42:04.620Z,2.73
2018-06-27T17:44:32.252Z,2.13
2018-06-27T17:46:59.972Z,2.20
2018-06-27T17:52:06.917Z,2.35
2018-06-27T17:54:35.067Z,2.40
2018-06-27T17:57:02.276Z,2.00
2018-06-27T18:07:41.314Z,2.00
2018-06-27T18:10:08.581Z,2.00
2018-06-27T18:12:38.580Z,1.57
2018-06-27T18:15:06.123Z,1.50
2018-06-27T18:20:19.183Z,2.50
2018-06-27T18:22:47.465Z,3.03
2018-06-27T18:25:15.934Z,3.20
2018-06-27T18:27:45.021Z,2.63
2018-06-27T18:30:13.778Z,3.10
2018-06-27T18:32:41.918Z,3.20
2018-06-27T18:35:10.987Z,3.37
2018-06-27T18:37:39.542Z,2.80
2018-06-27T18:40:07.484Z,2.50
2018-06-27T18:42:36.082Z,2.57
2018-06-27T18:45:04.386Z,2.43
2018-06-27T18:47:33.074Z,2.20
2018-06-27T18:50:09.668Z,2.40
2018-06-27T18:52:31.862Z,2.53
2018-06-27T18:55:00.468Z,2.93
2018-06-27T18:57:29.193Z,2.97
2018-06-27T18:59:57.622Z,3.00
2018-06-27T19:02:25.977Z,3.60
2018-06-27T19:04:55.424Z,2.43
2018-06-27T19:12:43.277Z,2.20
2018-06-27T19:21:13.458Z,1.43
2018-06-27T19:23:41.784Z,2.27
2018-06-27T19:26:09.634Z,0.90
2018-06-27T19:28:38.574Z,0.93
2018-06-27T19:31:06.712Z,1.03
2018-06-27T19:33:34.188Z,1.03
2018-06-27T19:36:01.992Z,1.13
2018-06-27T19:38:29.898Z,1.27
2018-06-27T19:40:58.267Z,1.50
2018-06-27T19:43:26.160Z,1.80
2018-06-27T19:45:54.342Z,1.30
2018-06-27T19:48:22.896Z,1.47
2018-06-27T19:50:51.352Z,1.10
2018-06-27T19:53:19.959Z,0.90
2018-06-27T19:55:47.707Z,1.20
2018-06-27T19:58:16.786Z,1.50
2018-06-27T20:00:45.293Z,1.23
2018-06-27T20:03:13.408Z,1.80
2018-06-27T20:05:41.741Z,1.60
2018-06-27T20:08:10.019Z,1.77
2018-06-27T20:10:38.073Z,1.73
2018-06-27T20:13:06.078Z,1.93
2018-06-27T20:15:34.118Z,2.00
2018-06-27T20:18:01.860Z,2.17
2018-06-27T20:20:29.553Z,2.10
2018-06-27T20:22:56.666Z,2.47
2018-06-27T20:25:24.160Z,2.77
2018-06-27T20:27:51.620Z,2.30
2018-06-27T20:30:18.874Z,2.60
2018-06-27T20:35:26.592Z,2.33
2018-06-27T20:37:53.601Z,1.70
2018-06-27T20:40:23.686Z,1.80
2018-06-27T20:42:50.758Z,1.60
2018-06-27T20:45:17.849Z,1.97
2018-06-27T20:47:44.945Z,1.73
2018-06-27T20:50:11.999Z,1.40
2018-06-27T20:52:39.043Z,1.77
2018-06-27T20:55:07.003Z,2.10
2018-06-27T20:57:34.064Z,1.73
2018-06-27T21:00:01.104Z,1.80
2018-06-27T21:02:28.121Z,1.73
2018-06-27T21:04:55.238Z,1.97
2018-06-27T21:07:22.256Z,2.37
2018-06-27T21:15:06.903Z,3.72
2018-06-27T21:17:33.999Z,2.90
2018-06-27T21:20:01.057Z,3.10
2018-06-27T21:22:28.094Z,2.27
2018-06-27T21:24:55.147Z,2.30
2018-06-27T21:27:22.159Z,2.70
2018-06-27T21:29:49.180Z,2.30
2018-06-27T21:32:16.286Z,2.97
2018-06-27T21:34:43.438Z,1.93
2018-06-27T21:37:12.687Z,2.57
2018-06-27T21:39:39.766Z,3.00
2018-06-27T21:42:06.815Z,2.57
2018-06-27T21:44:33.868Z,3.97
2018-06-27T21:47:01.688Z,4.07
2018-06-27T21:49:29.682Z,3.80
2018-06-27T21:51:56.746Z,3.53
2018-06-27T21:57:03.012Z,4.22
2018-06-27T21:59:32.439Z,3.90
2018-06-27T22:02:01.213Z,4.43
2018-06-27T22:04:28.324Z,4.93
2018-06-27T22:07:12.782Z,5.80
2018-06-27T22:09:48.717Z,4.87
2018-06-27T22:12:15.188Z,3.30
2018-06-27T22:14:42.245Z,3.43
2018-06-27T22:17:09.298Z,2.87
2018-06-27T22:19:36.473Z,3.87
2018-06-27T22:22:03.507Z,3.50
2018-06-27T22:24:30.589Z,4.07
2018-06-27T22:31:26.854Z,3.87
2018-06-27T22:34:10.694Z,4.43
2018-06-27T22:36:37.871Z,3.17
2018-06-27T22:39:06.789Z,3.60
2018-06-27T22:44:18.152Z,4.90
2018-06-27T22:46:47.006Z,3.80
2018-06-27T22:49:14.081Z,3.33
2018-06-27T22:51:41.202Z,3.60
2018-06-27T22:56:48.645Z,3.67
2018-06-27T22:59:15.910Z,3.43
2018-06-27T23:01:46.683Z,2.87
2018-06-27T23:04:13.797Z,2.20
2018-06-27T23:06:40.885Z,2.50
2018-06-27T23:09:07.974Z,2.50
2018-06-27T23:14:16.846Z,3.15
2018-06-27T23:16:43.932Z,2.57
2018-06-27T23:19:11.019Z,2.30
2018-06-27T23:21:39.661Z,1.90
2018-06-27T23:24:13.387Z,2.57
2018-06-27T23:26:44.749Z,2.50
2018-06-27T23:29:11.880Z,1.80
2018-06-27T23:31:39.001Z,2.27
2018-06-27T23:34:06.736Z,2.17
2018-06-27T23:39:13.345Z,2.42
2018-06-27T23:41:40.395Z,2.23
2018-06-27T23:44:07.467Z,2.20
2018-06-27T23:46:34.548Z,2.17
2018-06-27T23:49:03.128Z,1.83
2018-06-27T23:51:30.211Z,1.87
2018-06-27T23:54:01.483Z,2.30
2018-06-27T23:59:14.385Z,2.00
